Endicott, WA (99125)

3:32 AM PDT on October 02, 2014 (GMT -0700)
Winona-Silk Stocking Road | Change Station
CLOSE
Current Station
Personal Weather Station
Location: Endicott, WA
Elevation: 1483 ft
Nearby Weather Stations

Elev 1483 ft 46.94 °N, 117.80 °W | Updated 8 seconds ago

Partly Cloudy
Partly Cloudy
45.1 °F
Feels Like 45 °F
N
2.2
Wind Variable Wind from WNW
Gusts 3.6 mph

Today
High -- | Low -- °F
--% Chance of Precip.
Yesterday
High -- | Low -- °F
Precip. -- in
6:51 AM 6:28 PM
First Quarter, 57% visible
Pressure 30.13 in
Visibility 10.0 miles
Clouds Clear
Windchill 45 °F
Dew Point 40 °F
Humidity 81%
Rainfall 0.00 in
Snow Depth 0 in , 1 in , 0 in
UV 0 out of 12
Pollen 5.70 out of 12
Air Quality Not available.
Flu Activity Not available.
METAR KPUW 020953Z AUTO 25009KT 10SM CLR 08/03 A3013 RMK AO2 SLP203 T00830033

More Conditions Fewer Conditions

Pressure 30.13 in
Visibility 10.0 miles
Clouds Clear
Windchill 45 °F
Dew Point 40 °F
Humidity 81%
Rainfall 0.00 in
Snow Depth 0 in , 1 in , 0 in
UV 0 out of 12
Pollen 5.70 out of 12
Air Quality Not available.
Flu Activity Not available.
METAR KPUW 020953Z AUTO 25009KT 10SM CLR 08/03 A3013 RMK AO2 SLP203 T00830033

More Conditions Fewer Conditions

10-Day Weather Forecast

Almanac

Astronomy

Oct. 02, 2014 Rise Set
Actual Time 6:51 AM PDT 6:28 PM PDT
Civil Twilight 6:20 AM PDT 6:58 PM PDT
Nautical Twilight 5:45 AM PDT 7:33 PM PDT
Astronomical Twilight 5:09 AM PDT 8:09 PM PDT
Moon 2:57 PM PDT No Moon Set
Length of Visible Light 12h 37m
Length of Day
11h 37m
Tomorrow will be 3m 20s shorter.
First Quarter, 57% of the Moon is Illuminated
Today
First Quarter
Oct 8
Full
Oct 15
Last Quarter
Oct 23
New
Oct 30
First Quarter

Today's Extremes

State Highs State Lows

Community

WunderPhotos

Upload Photos

1,758,210 photos uploaded!

WunderBlogs® & News

Nearby

Snow Depth

Station Depth Elevation
Sheep Canyon 0 in 4030 ft
Surprise Lakes 1 in 4250 ft
June Lake 0 in 3340 ft
Sourdough Gulch 0 in 4000 ft
Lone Pine 0 in 3800 ft

Earthquake Activity

City Distance Mag. Time & Date
No recent earthquake activity has been reported nearby.
Minimum magnitude displayed is 2.5.

Coastal Water Temperatures

Place Temperature
No Stations Reporting

Nearby Weather Stations